Terminal Aerodrome Forecast
Issued by NWS Grand Forks, ND

Home | Current Version | Previous Version | Graphics & Text | Print | Product List | Glossary On
Versions: 1 2 3 4 5 6 7 8 9 10 11 12 13 14 15 16 17 18 19 20 21 22 23 24 25 26 27 28 29 30
040
FTUS43 KFGF 141603 AAC
TAFFAR
TAF AMD
KFAR 141603Z 1416/1512 32007KT P6SM BKN035
      TEMPO 1416/1418 BKN025
     FM141800 35014G22KT P6SM BKN018
     FM150000 33009KT P6SM BKN030=

USA.gov is the U.S. government's official web portal to all federal, state and local government web resources and services.